PWSweather.com
Personal Weather Stations
Station Observations
IMAZOWIE6
WarszawaPL

WarszawaPL

Lat: 52.27957, Lon: 21.05489

Elevation: 100

Station Type: WS1080

http://stacjapogody.waw.pl/

High Low Average
Temperature 35.4°F1.9°C 33.3°F0.7°C 34.5°F1.4°C
Dew Point 25.8°F-3.4°C 18.2°F-7.7°C 23.6°F-4.7°C
Winds 2.8 mph 4.5 kmh Calm Calm 1.0 mph N1.6 kmh N
Wind Gusts 6.2 mph10.0 kmh -- 2.0 mph3.2 kmh
Humidity 68% 54% 64%
Pressure 30.12 in1020.0 mb 29.98 in1015.2 mb -
Precipitation 0.00 in0.0 mm - -
Hour Temp Dew Point Humidity Winds Wind Gusts Pressure Precip Precip Rate Daily Precip Total
12:02 AM 35.1°F1.7°C 25.1°F-3.8°C 67% 0.6 mph N1.0 kmh N 2.0 mph3.2 kmh 30.11 in1019.6 mb 0.00 in0.0 mm 0.00 in0.0 mm 0.00 in0.0 mm
12:17 AM 35.1°F1.7°C 25.1°F-3.8°C 67% Calm Calm -- 30.11 in1019.6 mb 0.00 in0.0 mm 0.00 in0.0 mm 0.00 in0.0 mm
12:32 AM 35.1°F1.7°C 25.1°F-3.8°C 67% 1.4 mph N2.3 kmh N 2.8 mph4.5 kmh 30.11 in1019.6 mb 0.00 in0.0 mm 0.00 in0.0 mm 0.00 in0.0 mm
12:47 AM 35.1°F1.7°C 25.1°F-3.8°C 67% Calm Calm 0.6 mph1.0 kmh 30.11 in1019.6 mb 0.00 in0.0 mm 0.00 in0.0 mm 0.00 in0.0 mm
01:02 AM 34.7°F1.5°C 24.7°F-4.1°C 67% Calm Calm 0.6 mph1.0 kmh 30.11 in1019.6 mb 0.00 in0.0 mm 0.00 in0.0 mm 0.00 in0.0 mm
01:17 AM 34.7°F1.5°C 24.7°F-4.1°C 67% Calm Calm 2.0 mph3.2 kmh 30.11 in1019.6 mb 0.00 in0.0 mm 0.00 in0.0 mm 0.00 in0.0 mm
01:32 AM 34.9°F1.6°C 24.9°F-3.9°C 67% Calm Calm -- 30.12 in1020.0 mb 0.00 in0.0 mm 0.00 in0.0 mm 0.00 in0.0 mm
01:47 AM 34.9°F1.6°C 24.9°F-3.9°C 67% Calm Calm 1.4 mph2.3 kmh 30.12 in1020.0 mb 0.00 in0.0 mm 0.00 in0.0 mm 0.00 in0.0 mm
02:02 AM 34.5°F1.4°C 24.6°F-4.1°C 67% Calm Calm 1.4 mph2.3 kmh 30.12 in1020.0 mb 0.00 in0.0 mm 0.00 in0.0 mm 0.00 in0.0 mm
02:17 AM 34.5°F1.4°C 24.6°F-4.1°C 67% Calm Calm 2.0 mph3.2 kmh 30.12 in1020.0 mb 0.00 in0.0 mm 0.00 in0.0 mm 0.00 in0.0 mm
02:32 AM 34.5°F1.4°C 24.6°F-4.1°C 67% 1.4 mph N2.3 kmh N 2.8 mph4.5 kmh 30.12 in1020.0 mb 0.00 in0.0 mm 0.00 in0.0 mm 0.00 in0.0 mm
02:47 AM 34.3°F1.3°C 24.4°F-4.2°C 67% 1.4 mph N2.3 kmh N 2.8 mph4.5 kmh 30.11 in1019.6 mb 0.00 in0.0 mm 0.00 in0.0 mm 0.00 in0.0 mm
03:02 AM 34.3°F1.3°C 24.4°F-4.2°C 67% Calm Calm 0.6 mph1.0 kmh 30.11 in1019.6 mb 0.00 in0.0 mm 0.00 in0.0 mm 0.00 in0.0 mm
03:17 AM 34.2°F1.2°C 24.2°F-4.3°C 67% Calm Calm 1.4 mph2.3 kmh 30.11 in1019.6 mb 0.00 in0.0 mm 0.00 in0.0 mm 0.00 in0.0 mm
03:32 AM 34.2°F1.2°C 24.2°F-4.3°C 67% Calm Calm 2.0 mph3.2 kmh 30.11 in1019.6 mb 0.00 in0.0 mm 0.00 in0.0 mm 0.00 in0.0 mm
03:47 AM 34.3°F1.3°C 24.4°F-4.2°C 67% Calm Calm 1.4 mph2.3 kmh 30.11 in1019.6 mb 0.00 in0.0 mm 0.00 in0.0 mm 0.00 in0.0 mm
04:02 AM 34.3°F1.3°C 24.4°F-4.2°C 67% 1.4 mph N2.3 kmh N 3.4 mph5.5 kmh 30.11 in1019.6 mb 0.00 in0.0 mm 0.00 in0.0 mm 0.00 in0.0 mm
04:17 AM 34.3°F1.3°C 24.4°F-4.2°C 67% 0.6 mph N1.0 kmh N 1.4 mph2.3 kmh 30.11 in1019.6 mb 0.00 in0.0 mm 0.00 in0.0 mm 0.00 in0.0 mm
04:32 AM 34.3°F1.3°C 24.4°F-4.2°C 67% Calm Calm -- 30.10 in1019.3 mb 0.00 in0.0 mm 0.00 in0.0 mm 0.00 in0.0 mm
04:47 AM 34.3°F1.3°C 24.4°F-4.2°C 67% Calm Calm 1.4 mph2.3 kmh 30.11 in1019.6 mb 0.00 in0.0 mm 0.00 in0.0 mm 0.00 in0.0 mm
05:02 AM 34.2°F1.2°C 24.2°F-4.3°C 67% Calm Calm 0.6 mph1.0 kmh 30.11 in1019.6 mb 0.00 in0.0 mm 0.00 in0.0 mm 0.00 in0.0 mm
05:17 AM 34.2°F1.2°C 24.2°F-4.3°C 67% 1.4 mph N2.3 kmh N 2.8 mph4.5 kmh 30.10 in1019.3 mb 0.00 in0.0 mm 0.00 in0.0 mm 0.00 in0.0 mm
05:32 AM 34.0°F1.1°C 24.0°F-4.4°C 67% Calm Calm 1.4 mph2.3 kmh 30.11 in1019.6 mb 0.00 in0.0 mm 0.00 in0.0 mm 0.00 in0.0 mm
05:47 AM 34.2°F1.2°C 24.6°F-4.1°C 68% 0.6 mph N1.0 kmh N 2.8 mph4.5 kmh 30.10 in1019.3 mb 0.00 in0.0 mm 0.00 in0.0 mm 0.00 in0.0 mm
06:02 AM 34.2°F1.2°C 24.2°F-4.3°C 67% 2.0 mph N3.2 kmh N 4.8 mph7.7 kmh 30.10 in1019.3 mb 0.00 in0.0 mm 0.00 in0.0 mm 0.00 in0.0 mm
06:17 AM 34.0°F1.1°C 24.4°F-4.2°C 68% Calm Calm 1.4 mph2.3 kmh 30.10 in1019.3 mb 0.00 in0.0 mm 0.00 in0.0 mm 0.00 in0.0 mm
06:32 AM 34.0°F1.1°C 24.4°F-4.2°C 68% 0.6 mph N1.0 kmh N 1.4 mph2.3 kmh 30.10 in1019.3 mb 0.00 in0.0 mm 0.00 in0.0 mm 0.00 in0.0 mm
06:47 AM 34.2°F1.2°C 24.6°F-4.1°C 68% Calm Calm 1.4 mph2.3 kmh 30.10 in1019.3 mb 0.00 in0.0 mm 0.00 in0.0 mm 0.00 in0.0 mm
07:02 AM 34.2°F1.2°C 24.6°F-4.1°C 68% Calm Calm 0.6 mph1.0 kmh 30.10 in1019.3 mb 0.00 in0.0 mm 0.00 in0.0 mm 0.00 in0.0 mm
07:17 AM 34.2°F1.2°C 24.6°F-4.1°C 68% Calm Calm 1.4 mph2.3 kmh 30.11 in1019.6 mb 0.00 in0.0 mm 0.00 in0.0 mm 0.00 in0.0 mm
07:32 AM 34.2°F1.2°C 24.6°F-4.1°C 68% Calm Calm 0.6 mph1.0 kmh 30.11 in1019.6 mb 0.00 in0.0 mm 0.00 in0.0 mm 0.00 in0.0 mm
07:47 AM 34.2°F1.2°C 24.6°F-4.1°C 68% 1.4 mph N2.3 kmh N 2.8 mph4.5 kmh 30.11 in1019.6 mb 0.00 in0.0 mm 0.00 in0.0 mm 0.00 in0.0 mm
08:02 AM 34.2°F1.2°C 24.6°F-4.1°C 68% Calm Calm 0.6 mph1.0 kmh 30.11 in1019.6 mb 0.00 in0.0 mm 0.00 in0.0 mm 0.00 in0.0 mm
08:17 AM 34.2°F1.2°C 24.6°F-4.1°C 68% Calm Calm 1.4 mph2.3 kmh 30.11 in1019.6 mb 0.00 in0.0 mm 0.00 in0.0 mm 0.00 in0.0 mm
08:32 AM 34.2°F1.2°C 24.6°F-4.1°C 68% Calm Calm -- 30.11 in1019.6 mb 0.00 in0.0 mm 0.00 in0.0 mm 0.00 in0.0 mm
08:47 AM 34.3°F1.3°C 24.8°F-4.0°C 68% Calm Calm 0.6 mph1.0 kmh 30.12 in1020.0 mb 0.00 in0.0 mm 0.00 in0.0 mm 0.00 in0.0 mm
09:02 AM 34.3°F1.3°C 24.8°F-4.0°C 68% 1.4 mph N2.3 kmh N 2.0 mph3.2 kmh 30.12 in1020.0 mb 0.00 in0.0 mm 0.00 in0.0 mm 0.00 in0.0 mm
09:17 AM 34.3°F1.3°C 24.8°F-4.0°C 68% 0.6 mph N1.0 kmh N 2.0 mph3.2 kmh 30.12 in1020.0 mb 0.00 in0.0 mm 0.00 in0.0 mm 0.00 in0.0 mm
09:32 AM 34.5°F1.4°C 24.9°F-3.9°C 68% 2.0 mph N3.2 kmh N 4.0 mph6.4 kmh 30.12 in1020.0 mb 0.00 in0.0 mm 0.00 in0.0 mm 0.00 in0.0 mm
09:47 AM 34.3°F1.3°C 24.8°F-4.0°C 68% Calm Calm 2.0 mph3.2 kmh 30.12 in1020.0 mb 0.00 in0.0 mm 0.00 in0.0 mm 0.00 in0.0 mm
10:02 AM 34.5°F1.4°C 24.9°F-3.9°C 68% 1.4 mph N2.3 kmh N 2.8 mph4.5 kmh 30.12 in1020.0 mb 0.00 in0.0 mm 0.00 in0.0 mm 0.00 in0.0 mm
10:17 AM 34.5°F1.4°C 24.9°F-3.9°C 68% 2.0 mph N3.2 kmh N 4.0 mph6.4 kmh 30.12 in1020.0 mb 0.00 in0.0 mm 0.00 in0.0 mm 0.00 in0.0 mm
10:32 AM 34.5°F1.4°C 24.9°F-3.9°C 68% 0.6 mph N1.0 kmh N 2.8 mph4.5 kmh 30.12 in1020.0 mb 0.00 in0.0 mm 0.00 in0.0 mm 0.00 in0.0 mm
10:47 AM 35.1°F1.7°C 25.4°F-3.7°C 68% 0.6 mph N1.0 kmh N 2.0 mph3.2 kmh 30.12 in1020.0 mb 0.00 in0.0 mm 0.00 in0.0 mm 0.00 in0.0 mm
11:02 AM 35.1°F1.7°C 25.4°F-3.7°C 68% 0.6 mph N1.0 kmh N 2.0 mph3.2 kmh 30.11 in1019.6 mb 0.00 in0.0 mm 0.00 in0.0 mm 0.00 in0.0 mm
11:17 AM 34.9°F1.6°C 25.3°F-3.7°C 68% 1.4 mph N2.3 kmh N 2.8 mph4.5 kmh 30.11 in1019.6 mb 0.00 in0.0 mm 0.00 in0.0 mm 0.00 in0.0 mm
11:32 AM 35.1°F1.7°C 25.4°F-3.7°C 68% 2.0 mph N3.2 kmh N 4.0 mph6.4 kmh 30.10 in1019.3 mb 0.00 in0.0 mm 0.00 in0.0 mm 0.00 in0.0 mm
11:47 AM 35.1°F1.7°C 25.4°F-3.7°C 68% 0.6 mph N1.0 kmh N 2.8 mph4.5 kmh 30.09 in1019.0 mb 0.00 in0.0 mm 0.00 in0.0 mm 0.00 in0.0 mm
12:02 PM 35.1°F1.7°C 25.4°F-3.7°C 68% 1.4 mph N2.3 kmh N 2.8 mph4.5 kmh 30.09 in1019.0 mb 0.00 in0.0 mm 0.00 in0.0 mm 0.00 in0.0 mm
12:17 PM 35.2°F1.8°C 25.6°F-3.6°C 68% 1.4 mph N2.3 kmh N 2.0 mph3.2 kmh 30.09 in1019.0 mb 0.00 in0.0 mm 0.00 in0.0 mm 0.00 in0.0 mm
12:32 PM 35.2°F1.8°C 25.6°F-3.6°C 68% 2.0 mph N3.2 kmh N 4.8 mph7.7 kmh 30.08 in1018.6 mb 0.00 in0.0 mm 0.00 in0.0 mm 0.00 in0.0 mm
12:47 PM 35.4°F1.9°C 25.8°F-3.4°C 68% 0.6 mph N1.0 kmh N 2.8 mph4.5 kmh 30.07 in1018.3 mb 0.00 in0.0 mm 0.00 in0.0 mm 0.00 in0.0 mm
01:02 PM 35.4°F1.9°C 25.4°F-3.7°C 67% 1.4 mph N2.3 kmh N 2.8 mph4.5 kmh 30.07 in1018.3 mb 0.00 in0.0 mm 0.00 in0.0 mm 0.00 in0.0 mm
01:17 PM 35.4°F1.9°C 25.4°F-3.7°C 67% 0.6 mph N1.0 kmh N 2.0 mph3.2 kmh 30.07 in1018.3 mb 0.00 in0.0 mm 0.00 in0.0 mm 0.00 in0.0 mm
01:32 PM 35.4°F1.9°C 25.4°F-3.7°C 67% Calm Calm 1.4 mph2.3 kmh 30.07 in1018.3 mb 0.00 in0.0 mm 0.00 in0.0 mm 0.00 in0.0 mm
01:47 PM 35.2°F1.8°C 24.9°F-3.9°C 66% 1.4 mph N2.3 kmh N 2.8 mph4.5 kmh 30.07 in1018.3 mb 0.00 in0.0 mm 0.00 in0.0 mm 0.00 in0.0 mm
02:02 PM 35.2°F1.8°C 24.9°F-3.9°C 66% Calm Calm 0.6 mph1.0 kmh 30.07 in1018.3 mb 0.00 in0.0 mm 0.00 in0.0 mm 0.00 in0.0 mm
02:17 PM 34.9°F1.6°C 24.5°F-4.2°C 66% 2.0 mph N3.2 kmh N 3.4 mph5.5 kmh 30.06 in1017.9 mb 0.00 in0.0 mm 0.00 in0.0 mm 0.00 in0.0 mm
02:32 PM 34.9°F1.6°C 24.2°F-4.3°C 65% 0.6 mph N1.0 kmh N 3.4 mph5.5 kmh 30.06 in1017.9 mb 0.00 in0.0 mm 0.00 in0.0 mm 0.00 in0.0 mm
02:47 PM 34.9°F1.6°C 24.2°F-4.3°C 65% Calm Calm 0.6 mph1.0 kmh 30.05 in1017.6 mb 0.00 in0.0 mm 0.00 in0.0 mm 0.00 in0.0 mm
03:02 PM 34.9°F1.6°C 23.8°F-4.6°C 64% 0.6 mph N1.0 kmh N 2.8 mph4.5 kmh 30.06 in1017.9 mb 0.00 in0.0 mm 0.00 in0.0 mm 0.00 in0.0 mm
03:17 PM 34.7°F1.5°C 23.6°F-4.7°C 64% 2.8 mph N4.5 kmh N 6.2 mph10.0 kmh 30.06 in1017.9 mb 0.00 in0.0 mm 0.00 in0.0 mm 0.00 in0.0 mm
03:32 PM 34.7°F1.5°C 23.6°F-4.7°C 64% 2.8 mph N4.5 kmh N 5.4 mph8.7 kmh 30.06 in1017.9 mb 0.00 in0.0 mm 0.00 in0.0 mm 0.00 in0.0 mm
03:47 PM 34.9°F1.6°C 23.8°F-4.6°C 64% 0.6 mph N1.0 kmh N 2.8 mph4.5 kmh 30.06 in1017.9 mb 0.00 in0.0 mm 0.00 in0.0 mm 0.00 in0.0 mm
04:02 PM 34.7°F1.5°C 23.3°F-4.8°C 63% 1.4 mph N2.3 kmh N 2.8 mph4.5 kmh 30.05 in1017.6 mb 0.00 in0.0 mm 0.00 in0.0 mm 0.00 in0.0 mm
04:17 PM 34.5°F1.4°C 23.1°F-4.9°C 63% 0.6 mph N1.0 kmh N 2.0 mph3.2 kmh 30.05 in1017.6 mb 0.00 in0.0 mm 0.00 in0.0 mm 0.00 in0.0 mm
04:32 PM 34.3°F1.3°C 22.9°F-5.1°C 63% 0.6 mph N1.0 kmh N 2.0 mph3.2 kmh 30.04 in1017.3 mb 0.00 in0.0 mm 0.00 in0.0 mm 0.00 in0.0 mm
04:47 PM 34.3°F1.3°C 22.9°F-5.1°C 63% 1.4 mph N2.3 kmh N 4.0 mph6.4 kmh 30.04 in1017.3 mb 0.00 in0.0 mm 0.00 in0.0 mm 0.00 in0.0 mm
05:02 PM 34.5°F1.4°C 22.7°F-5.2°C 62% 1.4 mph N2.3 kmh N 2.8 mph4.5 kmh 30.04 in1017.3 mb 0.00 in0.0 mm 0.00 in0.0 mm 0.00 in0.0 mm
05:17 PM 34.5°F1.4°C 22.7°F-5.2°C 62% 0.6 mph N1.0 kmh N 2.0 mph3.2 kmh 30.04 in1017.3 mb 0.00 in0.0 mm 0.00 in0.0 mm 0.00 in0.0 mm
05:32 PM 34.7°F1.5°C 22.9°F-5.1°C 62% 2.0 mph N3.2 kmh N 4.0 mph6.4 kmh 30.03 in1016.9 mb 0.00 in0.0 mm 0.00 in0.0 mm 0.00 in0.0 mm
05:47 PM 34.5°F1.4°C 22.7°F-5.2°C 62% 2.0 mph N3.2 kmh N 3.4 mph5.5 kmh 30.03 in1016.9 mb 0.00 in0.0 mm 0.00 in0.0 mm 0.00 in0.0 mm
06:02 PM 34.5°F1.4°C 22.7°F-5.2°C 62% 1.4 mph N2.3 kmh N 4.8 mph7.7 kmh 30.02 in1016.6 mb 0.00 in0.0 mm 0.00 in0.0 mm 0.00 in0.0 mm
06:17 PM 34.5°F1.4°C 22.7°F-5.2°C 62% 0.6 mph N1.0 kmh N 2.0 mph3.2 kmh 30.03 in1016.9 mb 0.00 in0.0 mm 0.00 in0.0 mm 0.00 in0.0 mm
06:32 PM 34.5°F1.4°C 22.3°F-5.4°C 61% 0.6 mph N1.0 kmh N 4.0 mph6.4 kmh 30.02 in1016.6 mb 0.00 in0.0 mm 0.00 in0.0 mm 0.00 in0.0 mm
06:47 PM 34.5°F1.4°C 22.3°F-5.4°C 61% 2.0 mph N3.2 kmh N 4.8 mph7.7 kmh 30.02 in1016.6 mb 0.00 in0.0 mm 0.00 in0.0 mm 0.00 in0.0 mm
07:02 PM 34.7°F1.5°C 22.5°F-5.3°C 61% 2.8 mph N4.5 kmh N 4.8 mph7.7 kmh 30.02 in1016.6 mb 0.00 in0.0 mm 0.00 in0.0 mm 0.00 in0.0 mm
07:17 PM 34.5°F1.4°C 21.9°F-5.6°C 60% 2.0 mph N3.2 kmh N 3.4 mph5.5 kmh 30.02 in1016.6 mb 0.00 in0.0 mm 0.00 in0.0 mm 0.00 in0.0 mm
07:32 PM 34.7°F1.5°C 22.1°F-5.5°C 60% 1.4 mph N2.3 kmh N 3.4 mph5.5 kmh 30.01 in1016.3 mb 0.00 in0.0 mm 0.00 in0.0 mm 0.00 in0.0 mm
07:47 PM 34.3°F1.3°C 21.3°F-5.9°C 59% 1.4 mph N2.3 kmh N 3.4 mph5.5 kmh 30.02 in1016.6 mb 0.00 in0.0 mm 0.00 in0.0 mm 0.00 in0.0 mm
08:02 PM 34.5°F1.4°C 21.5°F-5.8°C 59% 1.4 mph N2.3 kmh N 2.8 mph4.5 kmh 30.01 in1016.3 mb 0.00 in0.0 mm 0.00 in0.0 mm 0.00 in0.0 mm
08:17 PM 34.5°F1.4°C 21.5°F-5.8°C 59% 1.4 mph N2.3 kmh N 4.8 mph7.7 kmh 30.01 in1016.3 mb 0.00 in0.0 mm 0.00 in0.0 mm 0.00 in0.0 mm
08:32 PM 34.7°F1.5°C 21.7°F-5.7°C 59% 1.4 mph N2.3 kmh N 2.8 mph4.5 kmh 30.00 in1015.9 mb 0.00 in0.0 mm 0.00 in0.0 mm 0.00 in0.0 mm
08:47 PM 34.3°F1.3°C 20.9°F-6.2°C 58% 1.4 mph N2.3 kmh N 3.4 mph5.5 kmh 30.00 in1015.9 mb 0.00 in0.0 mm 0.00 in0.0 mm 0.00 in0.0 mm
09:02 PM 34.3°F1.3°C 20.9°F-6.2°C 58% 1.4 mph N2.3 kmh N 4.0 mph6.4 kmh 30.00 in1015.9 mb 0.00 in0.0 mm 0.00 in0.0 mm 0.00 in0.0 mm
09:17 PM 34.3°F1.3°C 20.9°F-6.2°C 58% 1.4 mph N2.3 kmh N 2.8 mph4.5 kmh 30.00 in1015.9 mb 0.00 in0.0 mm 0.00 in0.0 mm 0.00 in0.0 mm
09:32 PM 34.2°F1.2°C 20.3°F-6.5°C 57% 0.6 mph N1.0 kmh N 2.8 mph4.5 kmh 30.00 in1015.9 mb 0.00 in0.0 mm 0.00 in0.0 mm 0.00 in0.0 mm
09:47 PM 34.0°F1.1°C 20.2°F-6.6°C 57% 1.4 mph N2.3 kmh N 3.4 mph5.5 kmh 30.00 in1015.9 mb 0.00 in0.0 mm 0.00 in0.0 mm 0.00 in0.0 mm
10:02 PM 34.2°F1.2°C 19.9°F-6.7°C 56% 1.4 mph N2.3 kmh N 4.0 mph6.4 kmh 30.00 in1015.9 mb 0.00 in0.0 mm 0.00 in0.0 mm 0.00 in0.0 mm
10:17 PM 34.0°F1.1°C 19.8°F-6.8°C 56% 1.4 mph N2.3 kmh N 3.4 mph5.5 kmh 29.99 in1015.6 mb 0.00 in0.0 mm 0.00 in0.0 mm 0.00 in0.0 mm
10:32 PM 33.8°F1.0°C 19.6°F-6.9°C 56% 1.4 mph N2.3 kmh N 3.4 mph5.5 kmh 29.99 in1015.6 mb 0.00 in0.0 mm 0.00 in0.0 mm 0.00 in0.0 mm
10:47 PM 33.6°F0.9°C 19.0°F-7.2°C 55% 1.4 mph N2.3 kmh N 3.4 mph5.5 kmh 29.99 in1015.6 mb 0.00 in0.0 mm 0.00 in0.0 mm 0.00 in0.0 mm
11:02 PM 33.6°F0.9°C 19.0°F-7.2°C 55% Calm Calm 0.6 mph1.0 kmh 29.99 in1015.6 mb 0.00 in0.0 mm 0.00 in0.0 mm 0.00 in0.0 mm
11:17 PM 33.4°F0.8°C 18.4°F-7.6°C 54% 0.6 mph N1.0 kmh N 2.8 mph4.5 kmh 29.99 in1015.6 mb 0.00 in0.0 mm 0.00 in0.0 mm 0.00 in0.0 mm
11:32 PM 33.3°F0.7°C 18.2°F-7.7°C 54% Calm Calm 1.4 mph2.3 kmh 29.98 in1015.2 mb 0.00 in0.0 mm 0.00 in0.0 mm 0.00 in0.0 mm
11:47 PM 33.4°F0.8°C 18.4°F-7.6°C 54% 1.4 mph N2.3 kmh N 3.4 mph5.5 kmh 29.98 in1015.2 mb 0.00 in0.0 mm 0.00 in0.0 mm 0.00 in0.0 mm